createdAt,value
2018-10-17T00:01:44.459Z,98.23
2018-10-17T00:04:13.887Z,97.87
2018-10-17T00:06:43.281Z,98.12
2018-10-17T00:09:12.707Z,97.72
2018-10-17T00:11:42.247Z,97.87
2018-10-17T00:14:11.728Z,97.55
2018-10-17T00:16:41.128Z,97.78
2018-10-17T00:19:10.617Z,97.31
2018-10-17T00:21:39.946Z,97.12
2018-10-17T00:24:09.355Z,96.95
2018-10-17T00:26:38.848Z,96.79
2018-10-17T00:29:08.384Z,96.90
2018-10-17T00:31:37.747Z,97.79
2018-10-17T00:34:07.155Z,98.44
2018-10-17T00:36:36.538Z,97.81
2018-10-17T00:39:09.620Z,97.69
2018-10-17T00:41:39.022Z,97.50
2018-10-17T00:44:08.467Z,96.86
2018-10-17T00:46:37.978Z,97.25
2018-10-17T00:49:07.449Z,96.40
2018-10-17T00:51:36.893Z,96.55
2018-10-17T00:54:07.179Z,97.37
2018-10-17T00:56:36.585Z,97.04
2018-10-17T00:59:12.766Z,96.85
2018-10-17T01:01:42.115Z,96.61
2018-10-17T01:04:11.710Z,96.61
2018-10-17T01:06:41.173Z,96.76
2018-10-17T01:09:13.951Z,96.59
2018-10-17T01:11:43.706Z,96.49
2018-10-17T01:14:13.127Z,96.33
2018-10-17T01:16:42.511Z,97.01
2018-10-17T01:19:12.023Z,97.48
2018-10-17T01:21:41.511Z,98.68
2018-10-17T01:24:10.900Z,99.14
2018-10-17T01:26:40.396Z,100.00
2018-10-17T01:29:09.870Z,100.00
2018-10-17T01:31:39.229Z,100.00
2018-10-17T01:34:08.644Z,100.00
2018-10-17T01:36:38.143Z,100.00
2018-10-17T01:39:10.077Z,100.00
2018-10-17T01:41:39.488Z,100.00
2018-10-17T01:44:09.305Z,99.85
2018-10-17T01:46:38.723Z,99.23
2018-10-17T01:49:08.293Z,99.00
2018-10-17T01:51:37.712Z,98.81
2018-10-17T01:54:07.112Z,98.91
2018-10-17T01:56:36.531Z,99.68
2018-10-17T01:59:07.350Z,99.30
2018-10-17T02:01:36.720Z,99.50
2018-10-17T02:04:07.004Z,99.73
2018-10-17T02:06:36.416Z,99.80
2018-10-17T02:09:09.083Z,100.00
2018-10-17T02:11:39.003Z,100.00
2018-10-17T02:14:08.616Z,100.00
2018-10-17T02:16:38.060Z,100.00
2018-10-17T02:19:07.654Z,100.00
2018-10-17T02:21:36.993Z,100.00
2018-10-17T02:24:07.823Z,100.00
2018-10-17T02:26:37.263Z,100.00
2018-10-17T02:29:08.661Z,100.00
2018-10-17T02:31:38.043Z,100.00
2018-10-17T02:34:07.527Z,100.00
2018-10-17T02:36:36.936Z,100.00
2018-10-17T02:39:10.475Z,100.00
2018-10-17T02:41:39.903Z,99.79
2018-10-17T02:44:09.296Z,99.61
2018-10-17T02:46:38.844Z,99.55
2018-10-17T02:49:08.822Z,99.10
2018-10-17T02:51:38.167Z,99.50
2018-10-17T02:54:08.111Z,99.89
2018-10-17T02:56:37.519Z,100.00
2018-10-17T02:59:06.994Z,100.00
2018-10-17T03:01:36.340Z,100.00
2018-10-17T03:04:07.053Z,100.00
2018-10-17T03:06:36.503Z,99.79
2018-10-17T03:09:09.103Z,99.49
2018-10-17T03:11:38.684Z,100.00
2018-10-17T03:14:08.181Z,100.00
2018-10-17T03:16:37.656Z,100.00
2018-10-17T03:19:07.163Z,100.00
2018-10-17T03:21:36.524Z,100.00
2018-10-17T03:24:07.048Z,100.00
2018-10-17T03:26:36.464Z,100.00
2018-10-17T03:29:07.018Z,100.00
2018-10-17T03:31:36.441Z,100.00
2018-10-17T03:34:06.985Z,100.00
2018-10-17T03:36:36.436Z,100.00
2018-10-17T03:39:11.043Z,99.97
2018-10-17T03:41:40.456Z,100.00
2018-10-17T03:44:10.144Z,99.67
2018-10-17T03:46:39.551Z,99.61
2018-10-17T03:49:09.254Z,99.57
2018-10-17T03:51:38.607Z,99.25
2018-10-17T03:54:08.015Z,99.24
2018-10-17T03:56:37.428Z,99.64
2018-10-17T03:59:07.438Z,99.68
2018-10-17T04:01:36.789Z,99.89
2018-10-17T04:04:07.399Z,99.92
2018-10-17T04:06:36.793Z,100.00
2018-10-17T04:09:09.119Z,100.00
2018-10-17T04:11:38.531Z,100.00
2018-10-17T04:14:08.080Z,100.00
2018-10-17T04:16:37.472Z,100.00
2018-10-17T04:19:07.523Z,100.00
2018-10-17T04:21:36.991Z,100.00
2018-10-17T04:24:07.572Z,100.00
2018-10-17T04:26:37.015Z,100.00
2018-10-17T04:29:07.531Z,100.00
2018-10-17T04:31:36.858Z,100.00
2018-10-17T04:34:07.494Z,100.00
2018-10-17T04:36:36.899Z,100.00
2018-10-17T04:39:10.416Z,100.00
2018-10-17T04:41:40.044Z,100.00
2018-10-17T04:44:10.579Z,100.00
2018-10-17T04:46:39.964Z,100.00
2018-10-17T04:49:10.068Z,100.00
2018-10-17T04:51:39.383Z,100.00
2018-10-17T04:54:08.779Z,100.00
2018-10-17T04:56:38.188Z,100.00
2018-10-17T04:59:07.706Z,100.00
2018-10-17T05:01:37.164Z,100.00
2018-10-17T05:04:07.885Z,100.00
2018-10-17T05:06:37.324Z,100.00
2018-10-17T05:09:11.160Z,100.00
2018-10-17T05:11:41.064Z,100.00
2018-10-17T05:14:10.483Z,100.00
2018-10-17T05:16:39.939Z,100.00
2018-10-17T05:19:09.363Z,100.00
2018-10-17T05:21:38.936Z,100.00
2018-10-17T05:24:08.368Z,100.00
2018-10-17T05:26:37.763Z,100.00
2018-10-17T05:29:07.803Z,100.00
2018-10-17T05:31:37.160Z,100.00
2018-10-17T05:34:07.868Z,100.00
2018-10-17T05:36:37.348Z,100.00
2018-10-17T05:39:08.504Z,100.00
2018-10-17T05:41:38.176Z,100.00
2018-10-17T05:44:07.960Z,100.00
2018-10-17T05:46:37.383Z,100.00
2018-10-17T05:49:08.041Z,100.00
2018-10-17T05:51:37.413Z,100.00
2018-10-17T05:54:08.039Z,100.00
2018-10-17T05:56:37.450Z,100.00
2018-10-17T05:59:23.415Z,100.00
2018-10-17T06:01:53.065Z,100.00
2018-10-17T06:04:22.443Z,100.00
2018-10-17T06:06:51.850Z,100.00
2018-10-17T06:09:21.254Z,100.00
2018-10-17T06:11:50.667Z,100.00
2018-10-17T06:14:20.080Z,100.00
2018-10-17T06:16:49.602Z,100.00
2018-10-17T06:19:18.987Z,100.00
2018-10-17T06:21:48.407Z,100.00
2018-10-17T06:24:17.834Z,100.00
2018-10-17T06:26:47.251Z,100.00
2018-10-17T06:29:16.765Z,100.00
2018-10-17T06:31:46.137Z,100.00
2018-10-17T06:34:15.661Z,100.00
2018-10-17T06:36:44.987Z,100.00
2018-10-17T06:39:14.435Z,100.00
2018-10-17T06:41:43.868Z,100.00
2018-10-17T06:44:13.265Z,100.00
2018-10-17T06:46:42.725Z,100.00
2018-10-17T06:49:12.313Z,100.00
2018-10-17T06:51:41.614Z,100.00
2018-10-17T06:54:11.064Z,100.00
2018-10-17T06:56:40.447Z,100.00
2018-10-17T06:59:09.874Z,100.00
2018-10-17T07:01:39.371Z,100.00
2018-10-17T07:04:08.688Z,100.00
2018-10-17T07:06:38.140Z,100.00
2018-10-17T07:09:10.296Z,100.00
2018-10-17T07:11:40.144Z,100.00
2018-10-17T07:14:09.579Z,99.91
2018-10-17T07:16:38.984Z,100.00
2018-10-17T07:19:08.473Z,100.00
2018-10-17T07:21:37.853Z,100.00
2018-10-17T07:24:08.420Z,100.00
2018-10-17T07:26:37.876Z,100.00
2018-10-17T07:29:08.570Z,100.00
2018-10-17T07:31:37.968Z,100.00
2018-10-17T07:34:08.331Z,100.00
2018-10-17T07:36:37.765Z,99.75
2018-10-17T07:39:09.855Z,99.45
2018-10-17T07:41:39.300Z,98.65
2018-10-17T07:44:08.847Z,98.92
2018-10-17T07:46:38.247Z,99.72
2018-10-17T07:49:08.555Z,99.70
2018-10-17T07:51:37.997Z,99.48
2018-10-17T07:54:08.612Z,98.56
2018-10-17T07:56:38.080Z,98.28
2018-10-17T07:59:08.615Z,97.99
2018-10-17T08:01:38.032Z,97.61
2018-10-17T08:04:08.620Z,97.19
2018-10-17T08:06:38.201Z,96.45
2018-10-17T08:09:10.903Z,95.81
2018-10-17T08:11:40.667Z,95.99
2018-10-17T08:14:10.169Z,95.81
2018-10-17T08:16:39.563Z,95.88
2018-10-17T08:19:09.193Z,95.89
2018-10-17T08:21:38.607Z,95.72
2018-10-17T08:24:08.642Z,96.41
2018-10-17T08:26:38.012Z,97.35
2018-10-17T08:29:08.670Z,98.04
2018-10-17T08:31:38.104Z,97.62
2018-10-17T08:34:08.577Z,98.21
2018-10-17T08:36:38.232Z,97.91
2018-10-17T08:39:10.313Z,96.85
2018-10-17T08:41:39.770Z,95.65
2018-10-17T08:44:09.228Z,94.87
2018-10-17T08:46:38.640Z,94.17
2018-10-17T08:49:08.660Z,93.16
2018-10-17T08:51:38.132Z,92.79
2018-10-17T08:54:08.592Z,91.54
2018-10-17T08:56:38.044Z,90.51
2018-10-17T08:59:08.707Z,89.33
2018-10-17T09:01:38.386Z,88.78
2018-10-17T09:04:08.812Z,87.85
2018-10-17T09:06:38.247Z,87.39
2018-10-17T09:09:11.729Z,86.12
2018-10-17T09:11:41.820Z,85.94
2018-10-17T09:14:11.765Z,84.85
2018-10-17T09:16:41.473Z,84.42
2018-10-17T09:19:11.312Z,84.43
2018-10-17T09:21:41.136Z,83.28
2018-10-17T09:24:10.162Z,81.47
2018-10-17T09:26:39.567Z,81.35
2018-10-17T09:29:08.991Z,80.59
2018-10-17T09:31:38.408Z,79.64
2018-10-17T09:34:08.810Z,79.07
2018-10-17T09:36:38.249Z,77.38
2018-10-17T09:39:11.499Z,77.53
2018-10-17T09:41:41.296Z,76.82
2018-10-17T09:44:10.708Z,77.12
2018-10-17T09:46:40.124Z,75.24
2018-10-17T09:49:09.768Z,75.91
2018-10-17T09:51:39.188Z,74.09
2018-10-17T09:54:08.798Z,75.25
2018-10-17T09:56:38.245Z,73.68
2018-10-17T09:59:08.899Z,73.90
2018-10-17T10:01:43.552Z,72.79
2018-10-17T10:04:13.005Z,71.94
2018-10-17T10:06:42.428Z,72.23
2018-10-17T10:09:12.119Z,72.06
2018-10-17T10:11:41.552Z,70.71
2018-10-17T10:14:11.007Z,71.07
2018-10-17T10:16:40.433Z,70.00
2018-10-17T10:19:09.900Z,69.75
2018-10-17T10:21:39.299Z,68.74
2018-10-17T10:24:09.347Z,68.43
2018-10-17T10:26:38.664Z,68.52
2018-10-17T10:29:09.300Z,67.57
2018-10-17T10:31:38.778Z,66.51
2018-10-17T10:34:09.308Z,66.16
2018-10-17T10:36:38.688Z,66.29
2018-10-17T10:39:11.907Z,65.02
2018-10-17T10:41:41.629Z,66.32
2018-10-17T10:44:11.120Z,66.59
2018-10-17T10:46:40.476Z,64.24
2018-10-17T10:49:10.192Z,65.63
2018-10-17T10:51:39.817Z,63.40
2018-10-17T10:54:09.360Z,64.49
2018-10-17T10:56:38.728Z,64.82
2018-10-17T10:59:09.343Z,64.17
2018-10-17T11:01:38.684Z,63.79
2018-10-17T11:04:09.336Z,63.01
2018-10-17T11:06:38.763Z,62.76
2018-10-17T11:09:10.208Z,63.13
2018-10-17T11:11:40.083Z,61.99
2018-10-17T11:14:09.796Z,64.09
2018-10-17T11:16:39.205Z,63.83
2018-10-17T11:19:09.459Z,62.67
2018-10-17T11:21:38.896Z,61.79
2018-10-17T11:24:09.448Z,63.21
2018-10-17T11:26:38.880Z,61.54
2018-10-17T11:29:09.614Z,61.53
2018-10-17T11:31:39.062Z,59.91
2018-10-17T11:34:09.492Z,58.77
2018-10-17T11:36:38.936Z,57.19
2018-10-17T11:39:10.652Z,57.00
2018-10-17T11:41:40.375Z,57.13
2018-10-17T11:44:09.620Z,57.49
2018-10-17T11:46:39.028Z,55.91
2018-10-17T11:49:09.523Z,52.73
2018-10-17T11:51:38.924Z,52.91
2018-10-17T11:54:09.642Z,55.14
2018-10-17T11:56:39.019Z,54.31
2018-10-17T11:59:09.532Z,53.69
2018-10-17T12:01:38.940Z,52.74
2018-10-17T12:04:09.961Z,52.16
2018-10-17T12:06:39.107Z,50.06
2018-10-17T12:09:10.234Z,50.57
2018-10-17T12:11:40.080Z,50.12
2018-10-17T12:14:09.668Z,50.86
2018-10-17T12:16:39.068Z,48.13
2018-10-17T12:19:09.781Z,49.28
2018-10-17T12:21:39.228Z,48.24
2018-10-17T12:24:09.739Z,46.91
2018-10-17T12:26:39.076Z,47.24
2018-10-17T12:29:09.715Z,47.34
2018-10-17T12:31:39.108Z,46.31
2018-10-17T12:34:09.755Z,46.64
2018-10-17T12:36:39.165Z,45.98
2018-10-17T12:39:12.312Z,45.10
2018-10-17T12:41:42.421Z,43.00
2018-10-17T12:44:11.750Z,43.71
2018-10-17T12:46:41.219Z,44.79
2018-10-17T12:49:10.841Z,46.18
2018-10-17T12:51:40.161Z,46.04
2018-10-17T12:54:10.051Z,46.29
2018-10-17T12:56:39.473Z,47.20
2018-10-17T12:59:10.256Z,44.02
2018-10-17T13:01:39.640Z,43.39
2018-10-17T13:04:10.079Z,41.67
2018-10-17T13:06:39.496Z,43.52
2018-10-17T13:09:11.407Z,43.16
2018-10-17T13:11:40.961Z,39.85
2018-10-17T13:14:10.642Z,40.38
2018-10-17T13:16:40.065Z,39.72
2018-10-17T13:19:10.164Z,40.22
2018-10-17T13:21:39.693Z,40.78
2018-10-17T13:24:10.049Z,39.75
2018-10-17T13:26:39.479Z,40.81
2018-10-17T13:29:10.144Z,41.94
2018-10-17T13:31:39.808Z,43.27
2018-10-17T13:34:10.243Z,41.63
2018-10-17T13:36:39.611Z,42.09
2018-10-17T13:39:12.855Z,41.26
2018-10-17T13:41:42.280Z,41.21
2018-10-17T13:44:11.672Z,41.69
2018-10-17T13:46:41.083Z,41.52
2018-10-17T13:49:10.661Z,41.13
2018-10-17T13:51:39.949Z,43.09
2018-10-17T13:54:10.467Z,43.46
2018-10-17T13:56:39.892Z,42.63
2018-10-17T13:59:10.854Z,42.21
2018-10-17T14:01:40.179Z,41.12
2018-10-17T14:04:10.700Z,40.29
2018-10-17T14:06:40.044Z,38.92
2018-10-17T14:09:11.387Z,38.01
2018-10-17T14:11:40.829Z,37.93
2018-10-17T14:14:10.604Z,36.78
2018-10-17T14:16:40.012Z,37.58
2018-10-17T14:19:10.660Z,34.93
2018-10-17T14:21:40.166Z,36.25
2018-10-17T14:24:10.935Z,35.87
2018-10-17T14:26:40.314Z,36.74
2018-10-17T14:29:10.794Z,39.22
2018-10-17T14:31:40.183Z,39.22
2018-10-17T14:34:10.826Z,41.43
2018-10-17T14:36:40.271Z,42.02
2018-10-17T14:39:12.804Z,42.19
2018-10-17T14:41:42.171Z,42.98
2018-10-17T14:44:11.563Z,40.81
2018-10-17T14:46:41.016Z,40.14
2018-10-17T14:49:11.116Z,40.52
2018-10-17T14:51:40.555Z,40.55
2018-10-17T14:54:11.065Z,39.41
2018-10-17T14:56:40.484Z,38.85
2018-10-17T14:59:11.123Z,39.73
2018-10-17T15:01:40.436Z,38.93
2018-10-17T15:04:11.085Z,37.25
2018-10-17T15:06:40.492Z,36.92
2018-10-17T15:09:11.133Z,37.11
2018-10-17T15:11:40.945Z,38.82
2018-10-17T15:14:10.995Z,37.45
2018-10-17T15:16:40.469Z,38.85
2018-10-17T15:19:11.268Z,38.95
2018-10-17T15:21:40.744Z,39.52
2018-10-17T15:24:11.051Z,40.28
2018-10-17T15:26:40.417Z,40.66
2018-10-17T15:29:11.094Z,42.26
2018-10-17T15:31:40.571Z,42.60
2018-10-17T15:34:11.401Z,43.51
2018-10-17T15:36:40.822Z,44.57
2018-10-17T15:39:11.855Z,45.53
2018-10-17T15:41:41.192Z,46.35
2018-10-17T15:44:11.007Z,47.75
2018-10-17T15:46:40.441Z,49.66
2018-10-17T15:49:11.115Z,50.73
2018-10-17T15:51:40.543Z,52.13
2018-10-17T15:54:11.167Z,54.54
2018-10-17T15:56:40.492Z,55.97
2018-10-17T15:59:11.004Z,55.57
2018-10-17T16:01:40.429Z,56.14
2018-10-17T16:04:11.097Z,57.27
2018-10-17T16:06:40.504Z,58.39
2018-10-17T16:09:12.855Z,58.89
2018-10-17T16:11:42.520Z,59.58
2018-10-17T16:14:12.013Z,59.73
2018-10-17T16:16:41.368Z,61.27
2018-10-17T16:19:11.043Z,63.05
2018-10-17T16:21:40.541Z,63.29
2018-10-17T16:24:11.136Z,63.35
2018-10-17T16:26:40.494Z,64.80
2018-10-17T16:29:11.154Z,65.17
2018-10-17T16:31:40.579Z,65.58
2018-10-17T16:34:11.071Z,66.42
2018-10-17T16:36:40.460Z,66.90
2018-10-17T16:39:12.217Z,68.35
2018-10-17T16:41:41.757Z,68.79
2018-10-17T16:44:11.422Z,69.25
2018-10-17T16:46:40.733Z,69.58
2018-10-17T16:49:11.084Z,69.67
2018-10-17T16:51:40.515Z,69.83
2018-10-17T16:54:11.205Z,70.55
2018-10-17T16:56:40.601Z,71.15
2018-10-17T16:59:11.265Z,71.80
2018-10-17T17:01:40.676Z,74.55
2018-10-17T17:04:11.438Z,74.84
2018-10-17T17:06:40.861Z,75.24
2018-10-17T17:09:12.004Z,77.51
2018-10-17T17:11:41.466Z,77.04
2018-10-17T17:14:11.452Z,76.39
2018-10-17T17:16:40.857Z,76.51
2018-10-17T17:19:11.404Z,76.14
2018-10-17T17:21:40.882Z,76.49
2018-10-17T17:24:11.603Z,77.06
2018-10-17T17:26:41.119Z,77.23
2018-10-17T17:29:11.445Z,77.14
2018-10-17T17:31:40.849Z,76.43
2018-10-17T17:34:11.521Z,77.00
2018-10-17T17:36:40.945Z,77.67
2018-10-17T17:39:11.479Z,77.21
2018-10-17T17:41:40.924Z,77.85
2018-10-17T17:44:11.511Z,77.66
2018-10-17T17:46:41.113Z,78.59
2018-10-17T17:49:11.468Z,78.44
2018-10-17T17:51:41.013Z,79.18
2018-10-17T17:54:11.582Z,78.50
2018-10-17T17:56:41.095Z,78.80
2018-10-17T17:59:11.472Z,79.38
2018-10-17T18:01:42.313Z,78.61
2018-10-17T18:04:12.513Z,79.16
2018-10-17T18:06:42.897Z,79.50
2018-10-17T18:09:14.067Z,80.86
2018-10-17T18:11:44.901Z,79.94
2018-10-17T18:14:14.636Z,80.38
2018-10-17T18:16:44.942Z,81.25
2018-10-17T18:19:15.306Z,80.88
2018-10-17T18:21:46.030Z,81.91
2018-10-17T18:24:16.359Z,81.68
2018-10-17T18:26:46.914Z,81.34
2018-10-17T18:29:18.778Z,82.11
2018-10-17T18:31:50.572Z,82.93
2018-10-17T18:34:23.065Z,84.20
2018-10-17T18:36:55.368Z,84.68
2018-10-17T18:39:26.946Z,83.70
2018-10-17T18:41:58.937Z,84.35
2018-10-17T18:44:32.583Z,84.60
2018-10-17T18:47:05.939Z,84.92
2018-10-17T18:49:38.503Z,85.14
2018-10-17T18:52:11.368Z,84.94
2018-10-17T18:54:44.318Z,85.33
2018-10-17T18:57:17.023Z,85.89
2018-10-17T18:59:49.774Z,85.15
2018-10-17T19:02:22.502Z,86.06
2018-10-17T19:04:55.505Z,86.54
2018-10-17T19:07:28.519Z,87.80
2018-10-17T19:10:01.647Z,89.41
2018-10-17T19:12:34.703Z,90.42
2018-10-17T19:15:08.387Z,90.32
2018-10-17T19:17:41.262Z,89.62
2018-10-17T19:20:14.494Z,90.41
2018-10-17T19:22:47.398Z,93.13
2018-10-17T19:25:20.917Z,91.79
2018-10-17T19:27:54.066Z,90.12
2018-10-17T19:30:27.119Z,90.17
2018-10-17T19:33:00.134Z,90.74
2018-10-17T19:35:32.740Z,90.11
2018-10-17T19:38:05.944Z,91.73
2018-10-17T19:40:38.973Z,91.84
2018-10-17T19:43:12.070Z,90.57
2018-10-17T19:45:45.214Z,89.71
2018-10-17T19:48:17.794Z,89.19
2018-10-17T19:50:50.937Z,89.09
2018-10-17T19:53:24.665Z,89.23
2018-10-17T19:55:57.587Z,89.00
2018-10-17T19:58:30.499Z,88.96
2018-10-17T20:01:03.726Z,88.61
2018-10-17T20:03:36.464Z,89.12
2018-10-17T20:06:09.479Z,89.28
2018-10-17T20:08:42.226Z,90.16
2018-10-17T20:11:13.999Z,90.68
2018-10-17T20:13:45.866Z,90.14
2018-10-17T20:16:17.070Z,90.92
2018-10-17T20:18:47.400Z,91.29
2018-10-17T20:21:17.431Z,91.68
2018-10-17T20:23:48.245Z,91.77
2018-10-17T20:26:18.045Z,93.12
2018-10-17T20:28:48.547Z,93.09
2018-10-17T20:31:18.898Z,94.28
2018-10-17T20:33:48.778Z,94.07
2018-10-17T20:36:18.498Z,93.72
2018-10-17T20:38:47.933Z,94.43
2018-10-17T20:41:17.797Z,93.19
2018-10-17T20:43:48.186Z,92.69
2018-10-17T20:46:17.660Z,92.61
2018-10-17T20:48:47.188Z,91.77
2018-10-17T20:51:16.755Z,91.81
2018-10-17T20:53:46.207Z,91.49
2018-10-17T20:56:15.719Z,92.50
2018-10-17T20:58:45.088Z,94.33
2018-10-17T21:01:14.539Z,92.93
2018-10-17T21:03:44.083Z,93.61
2018-10-17T21:06:13.537Z,92.77
2018-10-17T21:08:43.124Z,91.76
2018-10-17T21:11:12.553Z,92.34
2018-10-17T21:13:42.024Z,91.88
2018-10-17T21:16:11.460Z,92.97
2018-10-17T21:18:41.050Z,92.78
2018-10-17T21:21:10.412Z,92.61
2018-10-17T21:23:39.827Z,92.58
2018-10-17T21:26:09.365Z,92.86
2018-10-17T21:28:38.787Z,92.66
2018-10-17T21:31:08.223Z,92.99
2018-10-17T21:33:37.659Z,93.61
2018-10-17T21:36:07.137Z,93.25
2018-10-17T21:38:36.540Z,92.73
2018-10-17T21:41:05.979Z,93.16
2018-10-17T21:43:35.400Z,92.82
2018-10-17T21:46:05.270Z,92.44
2018-10-17T21:48:34.749Z,92.95
2018-10-17T21:51:04.180Z,93.50
2018-10-17T21:53:33.604Z,93.97
2018-10-17T21:56:03.061Z,95.56
2018-10-17T21:58:32.488Z,95.76
2018-10-17T22:01:01.951Z,95.10
2018-10-17T22:03:31.364Z,94.72
2018-10-17T22:06:00.841Z,94.69
2018-10-17T22:08:30.283Z,94.08
2018-10-17T22:10:59.685Z,93.80
2018-10-17T22:13:29.195Z,95.09
2018-10-17T22:15:58.616Z,96.18
2018-10-17T22:18:28.057Z,96.21
2018-10-17T22:20:57.515Z,98.94
2018-10-17T22:23:26.940Z,100.00
2018-10-17T22:25:56.405Z,99.69
2018-10-17T22:28:25.788Z,98.77
2018-10-17T22:30:55.215Z,98.03
2018-10-17T22:33:24.623Z,97.09
2018-10-17T22:35:54.040Z,96.59
2018-10-17T22:38:23.572Z,96.17
2018-10-17T22:40:52.968Z,95.87
2018-10-17T22:43:22.379Z,95.24
2018-10-17T22:45:51.795Z,96.15
2018-10-17T22:48:21.212Z,97.58
2018-10-17T22:50:50.621Z,98.54
2018-10-17T22:53:20.060Z,99.04
2018-10-17T22:55:49.464Z,98.05
2018-10-17T22:58:18.883Z,97.68
2018-10-17T23:00:48.694Z,97.06
2018-10-17T23:03:18.556Z,97.27
2018-10-17T23:05:48.003Z,96.55
2018-10-17T23:08:17.865Z,96.55
2018-10-17T23:10:47.256Z,96.08
2018-10-17T23:13:16.675Z,95.77
2018-10-17T23:15:46.151Z,95.50
2018-10-17T23:18:15.567Z,95.93
2018-10-17T23:20:45.023Z,95.79
2018-10-17T23:23:14.452Z,95.78
2018-10-17T23:25:43.936Z,96.49
2018-10-17T23:28:13.359Z,95.97
2018-10-17T23:30:42.751Z,96.44
2018-10-17T23:33:12.188Z,96.09
2018-10-17T23:35:41.599Z,95.59
2018-10-17T23:38:11.147Z,95.76
2018-10-17T23:40:40.456Z,96.11
2018-10-17T23:43:10.576Z,95.57
2018-10-17T23:45:40.208Z,95.99
2018-10-17T23:48:10.267Z,96.05
2018-10-17T23:50:39.936Z,95.18
2018-10-17T23:53:09.844Z,95.28
2018-10-17T23:55:39.245Z,95.26
2018-10-17T23:58:08.645Z,95.18
